Terminal Aerodrome Forecast
Issued by NWS

Home | Current Version | Previous Version | Text Only | Print | Product List | Glossary On
Versions: 1 2 3 4 5 6 7 8 9 10 11 12 13 14 15 16 17 18 19 20 21 22 23 24 25
000
FTUS46 KOTX 040520
TAFMWH
TAF
KMWH 040520Z 0406/0506 36005KT P6SM FEW150
     FM042000 02008KT P6SM SCT100 SCT200
     FM050200 31008KT P6SM SCT070 BKN120 OVC150=

USA.gov is the U.S. government's official web portal to all federal, state and local government web resources and services.